Reynolds, Nebraska
Current Conditions -  °F | °C
As of 7:55 PM on Monday 24 Nov 2014 (Local Time) from KHJH Reporting Station
Clear Clear  
Wind Chill: -5°   Ceiling: Unl
Heat Index: -2°   Visibility: 10mi
Dew Point: -10°   Wind: 5mph
Humidity: 55%   Direction: 300°WNW
Pressure: 30.06"   Gusts: NA
Location:  40.06°N, 97.34°W
Report Text: KHJH 250155Z AUTO 30004KT 10SM CLR M02/M10 A3006 RMK AO2 T10211101
Loading
Personal Weather Stations






























Interactive Weather Map New forecast layout! Learn more

10-Day Weather Forecast

Advertisements
Track Severe Weather on mobile